createdAt,value
2019-01-14T00:00:32.883Z,76.27
2019-01-14T00:03:04.338Z,76.99
2019-01-14T00:05:35.559Z,76.35
2019-01-14T00:08:07.036Z,75.43
2019-01-14T00:10:38.162Z,76.09
2019-01-14T00:13:09.621Z,76.43
2019-01-14T00:15:41.066Z,76.52
2019-01-14T00:18:12.398Z,76.54
2019-01-14T00:20:43.734Z,76.77
2019-01-14T00:23:14.790Z,76.88
2019-01-14T00:25:46.226Z,76.97
2019-01-14T00:28:17.414Z,76.85
2019-01-14T00:30:48.629Z,77.06
2019-01-14T00:33:19.711Z,77.18
2019-01-14T00:35:51.044Z,77.30
2019-01-14T00:38:22.355Z,77.42
2019-01-14T00:40:53.703Z,77.55
2019-01-14T00:43:24.770Z,77.40
2019-01-14T00:45:56.114Z,77.51
2019-01-14T00:48:27.549Z,77.33
2019-01-14T00:50:58.873Z,76.47
2019-01-14T00:53:30.376Z,76.57
2019-01-14T00:56:01.743Z,77.01
2019-01-14T00:58:32.966Z,77.16
2019-01-14T01:01:04.484Z,77.34
2019-01-14T01:03:35.891Z,77.12
2019-01-14T01:06:07.417Z,77.08
2019-01-14T01:08:38.978Z,78.89
2019-01-14T01:11:10.539Z,78.10
2019-01-14T01:13:41.624Z,78.13
2019-01-14T01:16:13.298Z,77.71
2019-01-14T01:18:44.579Z,77.53
2019-01-14T01:21:15.881Z,77.24
2019-01-14T01:23:47.233Z,77.98
2019-01-14T01:26:18.689Z,78.53
2019-01-14T01:28:49.749Z,78.37
2019-01-14T01:31:21.191Z,77.24
2019-01-14T01:33:52.850Z,78.45
2019-01-14T01:36:24.215Z,77.39
2019-01-14T01:38:55.586Z,78.00
2019-01-14T01:41:26.968Z,78.23
2019-01-14T01:43:58.192Z,77.84
2019-01-14T01:46:29.575Z,77.93
2019-01-14T01:49:00.911Z,77.58
2019-01-14T01:51:32.468Z,77.17
2019-01-14T01:54:03.786Z,76.64
2019-01-14T01:56:35.057Z,77.21
2019-01-14T01:59:06.459Z,76.25
2019-01-14T02:01:38.055Z,78.51
2019-01-14T02:04:09.365Z,77.78
2019-01-14T02:06:40.793Z,77.44
2019-01-14T02:09:11.882Z,77.84
2019-01-14T02:11:43.212Z,78.81
2019-01-14T02:14:14.342Z,78.70
2019-01-14T02:16:46.203Z,78.51
2019-01-14T02:19:17.460Z,77.56
2019-01-14T02:21:48.900Z,77.56
2019-01-14T02:24:20.251Z,77.28
2019-01-14T02:26:51.548Z,78.14
2019-01-14T02:29:22.932Z,77.90
2019-01-14T02:31:54.009Z,77.80
2019-01-14T02:34:25.176Z,77.82
2019-01-14T02:36:56.383Z,78.82
2019-01-14T02:39:27.753Z,77.95
2019-01-14T02:41:59.052Z,78.03
2019-01-14T02:44:30.284Z,78.57
2019-01-14T02:47:01.720Z,78.31
2019-01-14T02:49:33.047Z,78.71
2019-01-14T02:52:04.404Z,78.18
2019-01-14T02:54:35.823Z,78.14
2019-01-14T02:57:07.348Z,77.97
2019-01-14T02:59:38.816Z,78.43
2019-01-14T03:02:10.282Z,77.44
2019-01-14T03:04:41.608Z,76.36
2019-01-14T03:07:12.904Z,76.24
2019-01-14T03:09:43.979Z,76.06
2019-01-14T03:12:16.164Z,75.77
2019-01-14T03:14:47.280Z,75.73
2019-01-14T03:17:18.609Z,76.02
2019-01-14T03:19:49.765Z,76.81
2019-01-14T03:22:21.094Z,76.65
2019-01-14T03:24:52.152Z,76.11
2019-01-14T03:27:23.688Z,76.69
2019-01-14T03:29:54.800Z,76.79
2019-01-14T03:32:26.024Z,76.64
2019-01-14T03:34:57.279Z,76.50
2019-01-14T03:37:28.569Z,76.50
2019-01-14T03:39:59.816Z,76.79
2019-01-14T03:42:31.256Z,77.45
2019-01-14T03:45:02.356Z,79.48
2019-01-14T03:47:33.522Z,79.66
2019-01-14T03:50:06.245Z,79.82
2019-01-14T03:52:37.366Z,79.49
2019-01-14T03:55:09.016Z,78.91
2019-01-14T03:57:40.521Z,79.15
2019-01-14T04:00:13.446Z,78.55
2019-01-14T04:02:45.041Z,78.35
2019-01-14T04:05:16.273Z,78.43
2019-01-14T04:07:47.738Z,77.93
2019-01-14T04:10:19.282Z,77.79
2019-01-14T04:12:50.540Z,77.60
2019-01-14T04:15:21.893Z,78.11
2019-01-14T04:17:53.304Z,79.28
2019-01-14T04:20:24.566Z,79.31
2019-01-14T04:22:55.898Z,79.19
2019-01-14T04:25:27.209Z,79.03
2019-01-14T04:27:58.458Z,79.04
2019-01-14T04:30:29.730Z,78.91
2019-01-14T04:33:01.242Z,78.59
2019-01-14T04:35:32.625Z,78.31
2019-01-14T04:38:04.013Z,78.13
2019-01-14T04:40:35.409Z,78.53
2019-01-14T04:43:06.879Z,78.59
2019-01-14T04:45:38.211Z,78.46
2019-01-14T04:48:09.802Z,78.84
2019-01-14T04:50:41.111Z,78.18
2019-01-14T04:53:12.573Z,78.17
2019-01-14T04:55:43.804Z,78.18
2019-01-14T04:58:15.243Z,78.52
2019-01-14T05:00:46.555Z,78.44
2019-01-14T05:03:17.656Z,77.77
2019-01-14T05:05:49.052Z,77.59
2019-01-14T05:08:20.585Z,77.42
2019-01-14T05:10:52.042Z,77.40
2019-01-14T05:13:23.506Z,77.67
2019-01-14T05:15:54.576Z,77.87
2019-01-14T05:18:26.001Z,77.42
2019-01-14T05:20:57.486Z,77.91
2019-01-14T05:23:28.923Z,77.87
2019-01-14T05:26:00.260Z,77.27
2019-01-14T05:28:31.826Z,77.66
2019-01-14T05:31:03.400Z,77.83
2019-01-14T05:33:34.707Z,77.75
2019-01-14T05:36:06.111Z,77.98
2019-01-14T05:38:37.588Z,77.53
2019-01-14T05:41:08.950Z,77.16
2019-01-14T05:43:40.185Z,76.70
2019-01-14T05:46:11.534Z,76.74
2019-01-14T05:48:42.904Z,76.81
2019-01-14T05:51:14.071Z,77.12
2019-01-14T05:53:45.732Z,77.10
2019-01-14T05:56:17.234Z,77.57
2019-01-14T05:58:48.414Z,77.45
2019-01-14T06:01:19.788Z,77.72
2019-01-14T06:03:50.874Z,78.05
2019-01-14T06:06:22.076Z,77.45
2019-01-14T06:08:53.467Z,77.00
2019-01-14T06:11:24.687Z,76.70
2019-01-14T06:13:55.858Z,76.64
2019-01-14T06:16:26.952Z,76.65
2019-01-14T06:18:58.044Z,76.74
2019-01-14T06:21:29.141Z,76.61
2019-01-14T06:24:00.535Z,76.57
2019-01-14T06:26:32.035Z,76.37
2019-01-14T06:29:03.268Z,76.54
2019-01-14T06:31:34.513Z,76.57
2019-01-14T06:34:06.190Z,76.22
2019-01-14T06:36:37.596Z,76.05
2019-01-14T06:39:11.086Z,75.87
2019-01-14T06:41:42.530Z,75.00
2019-01-14T06:44:13.858Z,75.49
2019-01-14T06:46:45.215Z,75.80
2019-01-14T06:49:16.602Z,76.08
2019-01-14T06:51:47.968Z,76.89
2019-01-14T06:54:19.373Z,76.71
2019-01-14T06:56:50.481Z,76.63
2019-01-14T06:59:22.809Z,76.84
2019-01-14T07:01:54.179Z,76.83
2019-01-14T07:04:25.444Z,76.93
2019-01-14T07:06:56.516Z,76.46
2019-01-14T07:09:27.617Z,75.81
2019-01-14T07:11:59.100Z,76.00
2019-01-14T07:14:30.495Z,74.83
2019-01-14T07:17:01.552Z,74.64
2019-01-14T07:19:32.929Z,74.14
2019-01-14T07:22:04.395Z,74.20
2019-01-14T07:24:35.840Z,74.03
2019-01-14T07:27:06.931Z,74.10
2019-01-14T07:29:38.248Z,73.32
2019-01-14T07:32:09.682Z,72.49
2019-01-14T07:34:42.074Z,71.54
2019-01-14T07:37:13.143Z,71.54
2019-01-14T07:39:44.306Z,73.02
2019-01-14T07:42:15.544Z,74.27
2019-01-14T07:44:47.067Z,75.09
2019-01-14T07:47:18.105Z,75.12
2019-01-14T07:49:49.700Z,74.65
2019-01-14T07:52:21.009Z,74.95
2019-01-14T07:54:52.479Z,75.13
2019-01-14T07:57:23.748Z,74.39
2019-01-14T07:59:55.379Z,73.65
2019-01-14T08:02:26.874Z,72.98
2019-01-14T08:04:58.017Z,73.04
2019-01-14T08:07:29.068Z,72.31
2019-01-14T08:10:00.226Z,71.49
2019-01-14T08:12:31.487Z,71.12
2019-01-14T08:15:02.828Z,70.20
2019-01-14T08:17:34.338Z,69.64
2019-01-14T08:20:06.713Z,70.62
2019-01-14T08:22:37.941Z,69.86
2019-01-14T08:25:10.644Z,70.00
2019-01-14T08:27:41.825Z,69.49
2019-01-14T08:30:16.031Z,68.62
2019-01-14T08:32:47.579Z,69.01
2019-01-14T08:35:19.089Z,69.14
2019-01-14T08:37:51.046Z,69.20
2019-01-14T08:40:22.395Z,69.61
2019-01-14T08:42:53.683Z,69.33
2019-01-14T08:45:25.120Z,68.72
2019-01-14T08:47:56.446Z,68.79
2019-01-14T08:50:28.088Z,69.18
2019-01-14T08:52:59.351Z,69.37
2019-01-14T08:55:30.849Z,69.12
2019-01-14T08:58:01.920Z,68.75
2019-01-14T09:00:33.327Z,68.87
2019-01-14T09:03:04.926Z,69.52
2019-01-14T09:05:36.247Z,68.73
2019-01-14T09:08:07.630Z,68.79
2019-01-14T09:10:39.064Z,71.24
2019-01-14T09:13:10.446Z,69.14
2019-01-14T09:15:41.825Z,68.78
2019-01-14T09:18:13.216Z,68.75
2019-01-14T09:20:44.611Z,68.35
2019-01-14T09:23:16.038Z,68.69
2019-01-14T09:25:53.639Z,68.87
2019-01-14T09:28:20.491Z,68.59
2019-01-14T09:30:53.174Z,68.89
2019-01-14T09:33:24.651Z,68.69
2019-01-14T09:35:56.307Z,68.48
2019-01-14T09:38:27.793Z,69.30
2019-01-14T09:40:59.358Z,69.10
2019-01-14T09:43:30.839Z,69.38
2019-01-14T09:46:02.234Z,69.93
2019-01-14T09:48:33.693Z,69.36
2019-01-14T09:51:05.210Z,69.47
2019-01-14T09:53:36.706Z,69.26
2019-01-14T09:56:08.095Z,69.16
2019-01-14T09:58:39.165Z,69.60
2019-01-14T10:01:10.529Z,69.22
2019-01-14T10:03:42.138Z,69.08
2019-01-14T10:06:13.582Z,68.76
2019-01-14T10:08:45.205Z,69.10
2019-01-14T10:11:16.668Z,68.34
2019-01-14T10:13:47.960Z,67.75
2019-01-14T10:16:19.603Z,67.06
2019-01-14T10:18:50.976Z,66.95
2019-01-14T10:21:22.379Z,65.91
2019-01-14T10:23:53.698Z,65.30
2019-01-14T10:26:26.245Z,63.96
2019-01-14T10:28:57.939Z,62.06
2019-01-14T10:31:29.522Z,60.51
2019-01-14T10:34:00.954Z,59.93
2019-01-14T10:36:32.194Z,59.41
2019-01-14T10:39:05.329Z,59.22
2019-01-14T10:41:36.987Z,59.41
2019-01-14T10:44:08.360Z,60.25
2019-01-14T10:46:39.869Z,59.78
2019-01-14T10:49:11.260Z,60.52
2019-01-14T10:51:42.720Z,60.32
2019-01-14T10:54:14.008Z,60.57
2019-01-14T10:56:45.571Z,61.05
2019-01-14T10:59:16.785Z,62.04
2019-01-14T11:01:48.398Z,62.40
2019-01-14T11:04:19.571Z,63.14
2019-01-14T11:06:51.204Z,63.33
2019-01-14T11:09:22.522Z,63.78
2019-01-14T11:11:54.138Z,63.97
2019-01-14T11:14:25.741Z,64.01
2019-01-14T11:16:57.180Z,64.21
2019-01-14T11:19:28.592Z,62.30
2019-01-14T11:21:59.832Z,63.20
2019-01-14T11:24:49.812Z,63.04
2019-01-14T11:27:21.831Z,63.59
2019-01-14T11:29:53.871Z,64.21
2019-01-14T11:32:25.401Z,64.10
2019-01-14T11:34:56.641Z,63.96
2019-01-14T11:37:27.885Z,63.68
2019-01-14T11:39:58.999Z,63.00
2019-01-14T11:42:30.142Z,62.40
2019-01-14T11:45:01.264Z,63.66
2019-01-14T11:47:32.751Z,64.75
2019-01-14T11:50:05.358Z,67.09
2019-01-14T11:52:36.516Z,68.24
2019-01-14T11:55:08.247Z,69.82
2019-01-14T11:57:39.520Z,70.12
2019-01-14T12:00:23.199Z,70.15
2019-01-14T12:02:54.676Z,66.65
2019-01-14T12:05:26.137Z,66.01
2019-01-14T12:07:57.464Z,64.47
2019-01-14T12:10:28.833Z,63.95
2019-01-14T12:13:00.438Z,63.32
2019-01-14T12:15:31.930Z,64.12
2019-01-14T12:18:03.424Z,64.45
2019-01-14T12:20:34.627Z,64.30
2019-01-14T12:23:06.655Z,64.67
2019-01-14T12:25:38.164Z,65.18
2019-01-14T12:28:09.655Z,65.73
2019-01-14T12:30:42.700Z,65.44
2019-01-14T12:33:14.082Z,64.95
2019-01-14T12:35:45.405Z,65.89
2019-01-14T12:38:16.695Z,67.08
2019-01-14T12:40:48.043Z,68.43
2019-01-14T12:43:20.228Z,68.37
2019-01-14T12:45:52.328Z,68.63
2019-01-14T12:48:24.035Z,68.82
2019-01-14T12:50:55.536Z,70.14
2019-01-14T12:53:26.947Z,71.85
2019-01-14T12:55:58.307Z,71.50
2019-01-14T12:58:29.760Z,71.99
2019-01-14T13:01:00.972Z,72.45
2019-01-14T13:03:32.417Z,72.51
2019-01-14T13:06:03.952Z,72.67
2019-01-14T13:08:35.432Z,73.78
2019-01-14T13:11:07.052Z,73.92
2019-01-14T13:13:38.267Z,74.39
2019-01-14T13:16:09.484Z,74.41
2019-01-14T13:18:40.639Z,74.27
2019-01-14T13:21:11.908Z,74.43
2019-01-14T13:23:43.305Z,74.27
2019-01-14T13:26:14.606Z,74.43
2019-01-14T13:28:45.770Z,74.30
2019-01-14T13:31:17.146Z,75.15
2019-01-14T13:33:48.457Z,74.86
2019-01-14T13:36:19.792Z,76.29
2019-01-14T13:38:50.955Z,75.90
2019-01-14T13:41:22.389Z,76.18
2019-01-14T13:43:53.683Z,76.16
2019-01-14T13:46:26.359Z,75.92
2019-01-14T13:48:57.881Z,76.11
2019-01-14T13:51:30.290Z,75.86
2019-01-14T13:54:01.921Z,75.91
2019-01-14T14:04:50.578Z,76.43
2019-01-14T14:07:22.082Z,77.06
2019-01-14T14:09:53.666Z,77.43
2019-01-14T14:12:25.306Z,76.99
2019-01-14T14:14:56.543Z,77.07
2019-01-14T14:17:27.947Z,77.08
2019-01-14T14:19:59.296Z,76.84
2019-01-14T14:22:30.441Z,76.36
2019-01-14T14:25:01.739Z,76.24
2019-01-14T14:27:33.147Z,76.78
2019-01-14T14:30:07.451Z,76.93
2019-01-14T14:32:38.712Z,76.52
2019-01-14T14:35:10.051Z,76.52
2019-01-14T14:37:41.608Z,76.72
2019-01-14T14:40:13.288Z,77.22
2019-01-14T14:42:44.744Z,77.82
2019-01-14T14:45:16.371Z,77.10
2019-01-14T14:47:47.919Z,77.34
2019-01-14T14:50:19.394Z,77.42
2019-01-14T14:52:50.952Z,77.33
2019-01-14T14:55:23.249Z,77.46
2019-01-14T14:57:54.975Z,77.15
2019-01-14T15:00:26.485Z,76.76
2019-01-14T15:02:57.963Z,77.06
2019-01-14T15:05:29.301Z,76.96
2019-01-14T15:08:00.582Z,77.31
2019-01-14T15:10:32.013Z,77.18
2019-01-14T15:13:03.265Z,77.05
2019-01-14T15:15:34.595Z,76.68
2019-01-14T15:18:06.466Z,77.07
2019-01-14T15:20:37.941Z,76.77
2019-01-14T15:23:09.108Z,76.88
2019-01-14T15:25:40.538Z,76.83
2019-01-14T15:28:11.644Z,77.00
2019-01-14T15:30:43.083Z,76.31
2019-01-14T15:33:14.473Z,76.46
2019-01-14T15:35:45.600Z,76.37
2019-01-14T15:38:16.914Z,76.65
2019-01-14T15:40:48.391Z,76.94
2019-01-14T15:43:19.508Z,77.29
2019-01-14T15:45:50.685Z,77.04
2019-01-14T15:48:21.912Z,76.61
2019-01-14T15:50:53.239Z,76.60
2019-01-14T15:53:24.371Z,76.86
2019-01-14T15:55:55.787Z,77.11
2019-01-14T15:58:27.279Z,77.28
2019-01-14T16:00:58.856Z,77.27
2019-01-14T16:03:30.297Z,77.69
2019-01-14T16:06:01.629Z,77.45
2019-01-14T16:08:32.687Z,77.35
2019-01-14T16:11:04.096Z,77.66
2019-01-14T16:13:35.447Z,77.59
2019-01-14T16:16:06.706Z,78.29
2019-01-14T16:18:38.087Z,78.56
2019-01-14T16:21:09.461Z,78.85
2019-01-14T16:23:40.663Z,78.92
2019-01-14T16:26:11.846Z,79.42
2019-01-14T16:28:42.918Z,79.32
2019-01-14T16:31:14.367Z,78.84
2019-01-14T16:33:45.557Z,78.53
2019-01-14T16:36:16.658Z,78.90
2019-01-14T16:38:47.950Z,78.79
2019-01-14T16:41:19.382Z,78.96
2019-01-14T16:43:50.585Z,79.29
2019-01-14T16:46:21.922Z,78.83
2019-01-14T16:48:53.345Z,78.76
2019-01-14T16:51:24.839Z,78.93
2019-01-14T16:53:57.191Z,79.14
2019-01-14T16:56:28.554Z,78.95
2019-01-14T16:58:59.799Z,78.74
2019-01-14T17:01:30.976Z,78.56
2019-01-14T17:04:02.272Z,78.72
2019-01-14T17:06:33.741Z,78.80
2019-01-14T17:09:08.397Z,78.46
2019-01-14T17:11:39.760Z,78.04
2019-01-14T17:14:11.206Z,77.97
2019-01-14T17:16:42.586Z,78.09
2019-01-14T17:19:13.863Z,77.73
2019-01-14T17:21:45.522Z,77.49
2019-01-14T17:24:17.012Z,77.70
2019-01-14T17:26:48.322Z,77.99
2019-01-14T17:29:19.642Z,78.14
2019-01-14T17:31:50.958Z,78.52
2019-01-14T17:34:22.220Z,79.12
2019-01-14T17:36:53.719Z,79.59
2019-01-14T17:39:25.014Z,79.84
2019-01-14T17:41:56.773Z,80.09
2019-01-14T17:44:27.961Z,80.72
2019-01-14T17:46:59.330Z,80.98
2019-01-14T17:49:30.660Z,81.02
2019-01-14T17:52:02.100Z,80.85
2019-01-14T17:54:33.206Z,80.86
2019-01-14T17:57:04.512Z,80.35
2019-01-14T17:59:35.869Z,80.57
2019-01-14T18:02:07.199Z,80.50
2019-01-14T18:04:38.515Z,80.15
2019-01-14T18:07:09.801Z,79.91
2019-01-14T18:09:40.945Z,79.86
2019-01-14T18:12:12.340Z,79.59
2019-01-14T18:14:43.745Z,79.66
2019-01-14T18:17:14.975Z,79.32
2019-01-14T18:19:46.263Z,78.96
2019-01-14T18:22:17.564Z,79.33
2019-01-14T18:24:49.002Z,79.05
2019-01-14T18:27:20.422Z,79.13
2019-01-14T18:29:51.963Z,78.78
2019-01-14T18:32:23.482Z,78.84
2019-01-14T18:34:54.956Z,78.51
2019-01-14T18:37:26.553Z,78.02
2019-01-14T18:39:58.755Z,78.37
2019-01-14T18:42:30.063Z,78.97
2019-01-14T18:45:01.119Z,79.72
2019-01-14T18:47:32.494Z,79.50
2019-01-14T18:50:03.821Z,79.54
2019-01-14T18:52:34.938Z,79.62
2019-01-14T18:55:06.703Z,79.72
2019-01-14T18:57:38.000Z,79.83
2019-01-14T19:00:12.994Z,79.48
2019-01-14T19:02:44.771Z,79.46
2019-01-14T19:05:16.384Z,78.24
2019-01-14T19:07:47.980Z,77.49
2019-01-14T19:10:19.275Z,76.67
2019-01-14T19:12:50.885Z,75.63
2019-01-14T19:15:22.925Z,74.62
2019-01-14T19:17:54.834Z,74.88
2019-01-14T19:20:27.968Z,75.45
2019-01-14T19:22:59.090Z,74.94
2019-01-14T19:25:30.704Z,74.77
2019-01-14T19:28:02.269Z,74.51
2019-01-14T19:30:33.552Z,74.11
2019-01-14T19:33:05.037Z,74.16
2019-01-14T19:35:36.291Z,74.47
2019-01-14T19:38:07.971Z,74.36
2019-01-14T19:40:39.180Z,74.40
2019-01-14T19:43:10.750Z,74.76
2019-01-14T19:45:49.536Z,74.34
2019-01-14T19:48:15.290Z,74.56
2019-01-14T19:50:46.705Z,74.68
2019-01-14T19:53:18.044Z,74.60
2019-01-14T19:55:49.329Z,74.45
2019-01-14T19:58:20.990Z,74.49
2019-01-14T20:00:52.154Z,74.03
2019-01-14T20:03:23.577Z,74.05
2019-01-14T20:05:55.125Z,74.09
2019-01-14T20:08:26.532Z,73.98
2019-01-14T20:10:57.738Z,74.17
2019-01-14T20:13:29.209Z,74.28
2019-01-14T20:16:00.511Z,74.33
2019-01-14T20:18:32.018Z,74.18
2019-01-14T20:21:03.225Z,74.03
2019-01-14T20:23:34.490Z,74.19
2019-01-14T20:26:05.783Z,73.81
2019-01-14T20:28:36.941Z,73.71
2019-01-14T20:31:08.016Z,73.68
2019-01-14T20:33:39.198Z,73.25
2019-01-14T20:36:10.274Z,72.65
2019-01-14T20:38:41.528Z,72.55
2019-01-14T20:41:16.414Z,72.47
2019-01-14T20:43:45.721Z,72.29
2019-01-14T20:46:16.967Z,72.39
2019-01-14T20:48:48.265Z,72.59
2019-01-14T20:51:19.410Z,72.49
2019-01-14T20:53:50.790Z,72.59
2019-01-14T20:56:22.150Z,72.44
2019-01-14T20:58:53.428Z,72.28
2019-01-14T21:01:24.745Z,71.93
2019-01-14T21:03:56.348Z,71.69
2019-01-14T21:06:27.752Z,72.41
2019-01-14T21:08:59.007Z,72.68
2019-01-14T21:11:34.026Z,72.50
2019-01-14T21:14:05.518Z,73.61
2019-01-14T21:16:42.645Z,73.86
2019-01-14T21:20:04.675Z,73.60
2019-01-14T21:23:13.794Z,74.02
2019-01-14T21:25:50.335Z,73.94
2019-01-14T21:28:41.049Z,73.29
2019-01-14T21:31:31.876Z,72.70
2019-01-14T21:34:22.211Z,71.24
2019-01-14T21:37:16.636Z,71.18
2019-01-14T21:40:09.297Z,70.07
2019-01-14T21:43:00.096Z,69.04
2019-01-14T21:45:32.295Z,68.58
2019-01-14T21:48:01.535Z,67.14
2019-01-14T21:50:32.952Z,66.65
2019-01-14T21:53:04.553Z,66.52
2019-01-14T21:55:35.990Z,66.18
2019-01-14T21:58:07.280Z,65.27
2019-01-14T22:00:38.813Z,64.92
2019-01-14T22:03:10.138Z,65.44
2019-01-14T22:05:41.376Z,65.27
2019-01-14T22:08:12.762Z,64.82
2019-01-14T22:10:43.844Z,64.79
2019-01-14T22:13:14.909Z,64.83
2019-01-14T22:16:34.629Z,65.04
2019-01-14T22:19:57.169Z,64.83
2019-01-14T22:23:17.361Z,64.85
2019-01-14T22:26:16.412Z,64.87
2019-01-14T22:29:15.001Z,64.95
2019-01-14T22:32:07.954Z,64.96
2019-01-14T22:34:41.366Z,64.79
2019-01-14T22:37:12.745Z,64.31
2019-01-14T22:39:43.854Z,64.65
2019-01-14T22:42:14.937Z,64.36
2019-01-14T22:44:46.259Z,64.70
2019-01-14T22:47:17.378Z,64.17
2019-01-14T22:49:48.461Z,63.92
2019-01-14T22:52:19.861Z,63.83
2019-01-14T22:54:51.079Z,64.11
2019-01-14T22:57:22.454Z,63.69
2019-01-14T22:59:53.708Z,63.40
2019-01-14T23:02:24.970Z,63.46
2019-01-14T23:04:56.401Z,63.04
2019-01-14T23:07:27.479Z,63.09
2019-01-14T23:09:58.736Z,62.80
2019-01-14T23:12:29.797Z,62.36
2019-01-14T23:15:00.834Z,62.12
2019-01-14T23:17:33.549Z,62.33
2019-01-14T23:20:05.733Z,61.67
2019-01-14T23:22:38.134Z,61.76
2019-01-14T23:25:09.578Z,62.01
2019-01-14T23:27:40.866Z,61.41
2019-01-14T23:30:12.325Z,61.10
2019-01-14T23:32:44.022Z,61.52
2019-01-14T23:35:15.269Z,62.21
2019-01-14T23:37:46.437Z,62.40
2019-01-14T23:40:17.940Z,62.24
2019-01-14T23:42:49.137Z,62.57
2019-01-14T23:45:20.513Z,62.80
2019-01-14T23:47:52.038Z,63.18
2019-01-14T23:50:23.344Z,63.09
2019-01-14T23:52:54.834Z,63.76
2019-01-14T23:55:26.228Z,63.78
2019-01-14T23:57:57.696Z,63.70
